sensor_id;sensor_type;location;lat;lon;timestamp;pressure;altitude;pressure_sealevel;temperature;humidity
84661;BME280;74889;52.240;20.902;2024-02-04T00:00:01;99483.14;;;7.42;75.95
84661;BME280;74889;52.240;20.902;2024-02-04T00:02:36;99485.98;;;7.38;75.59
84661;BME280;74889;52.240;20.902;2024-02-04T00:05:03;99485.50;;;7.36;75.72
84661;BME280;74889;52.240;20.902;2024-02-04T00:07:29;99488.23;;;7.33;75.57
84661;BME280;74889;52.240;20.902;2024-02-04T00:09:55;99488.39;;;7.30;75.21
84661;BME280;74889;52.240;20.902;2024-02-04T00:12:21;99489.64;;;7.28;75.16
84661;BME280;74889;52.240;20.902;2024-02-04T00:14:48;99492.48;;;7.26;75.16
84661;BME280;74889;52.240;20.902;2024-02-04T00:17:16;99486.65;;;7.26;75.27
84661;BME280;74889;52.240;20.902;2024-02-04T00:19:43;99487.33;;;7.24;75.03
84661;BME280;74889;52.240;20.902;2024-02-04T00:22:09;99481.61;;;7.23;74.89
84661;BME280;74889;52.240;20.902;2024-02-04T00:24:35;99478.11;;;7.22;74.95
84661;BME280;74889;52.240;20.902;2024-02-04T00:27:01;99472.19;;;7.21;75.03
84661;BME280;74889;52.240;20.902;2024-02-04T00:29:28;99472.70;;;7.20;74.87
84661;BME280;74889;52.240;20.902;2024-02-04T00:31:53;99467.59;;;7.19;74.82
84661;BME280;74889;52.240;20.902;2024-02-04T00:34:19;99467.39;;;7.19;74.83
84661;BME280;74889;52.240;20.902;2024-02-04T00:36:46;99467.77;;;7.19;74.91
84661;BME280;74889;52.240;20.902;2024-02-04T00:39:12;99466.79;;;7.16;74.72
84661;BME280;74889;52.240;20.902;2024-02-04T00:41:38;99467.47;;;7.15;74.90
84661;BME280;74889;52.240;20.902;2024-02-04T00:44:03;99464.95;;;7.13;74.73
84661;BME280;74889;52.240;20.902;2024-02-04T00:46:29;99468.02;;;7.11;74.83
84661;BME280;74889;52.240;20.902;2024-02-04T00:48:54;99471.64;;;7.10;74.79
84661;BME280;74889;52.240;20.902;2024-02-04T00:51:20;99473.16;;;7.09;74.85
84661;BME280;74889;52.240;20.902;2024-02-04T00:53:46;99469.20;;;7.08;74.84
84661;BME280;74889;52.240;20.902;2024-02-04T00:56:12;99464.02;;;7.06;74.94
84661;BME280;74889;52.240;20.902;2024-02-04T00:58:38;99461.98;;;7.05;74.96
84661;BME280;74889;52.240;20.902;2024-02-04T01:01:04;99465.39;;;7.05;74.98
84661;BME280;74889;52.240;20.902;2024-02-04T01:03:31;99465.98;;;7.05;74.94
84661;BME280;74889;52.240;20.902;2024-02-04T01:05:57;99470.32;;;7.04;75.05
84661;BME280;74889;52.240;20.902;2024-02-04T01:08:23;99469.52;;;7.03;75.02
84661;BME280;74889;52.240;20.902;2024-02-04T01:10:48;99472.80;;;7.02;75.00
84661;BME280;74889;52.240;20.902;2024-02-04T01:13:17;99476.83;;;7.01;75.18
84661;BME280;74889;52.240;20.902;2024-02-04T01:15:43;99477.95;;;7.00;75.33
84661;BME280;74889;52.240;20.902;2024-02-04T01:18:09;99477.50;;;7.02;75.24
84661;BME280;74889;52.240;20.902;2024-02-04T01:20:34;99478.45;;;7.01;75.33
84661;BME280;74889;52.240;20.902;2024-02-04T01:23:00;99478.60;;;7.01;75.15
84661;BME280;74889;52.240;20.902;2024-02-04T01:25:25;99477.84;;;7.00;75.38
84661;BME280;74889;52.240;20.902;2024-02-04T01:27:51;99479.67;;;6.97;75.57
84661;BME280;74889;52.240;20.902;2024-02-04T01:30:18;99480.89;;;6.96;75.54
84661;BME280;74889;52.240;20.902;2024-02-04T01:32:43;99483.52;;;6.94;75.61
84661;BME280;74889;52.240;20.902;2024-02-04T01:35:10;99478.39;;;6.92;75.87
84661;BME280;74889;52.240;20.902;2024-02-04T01:37:37;99475.21;;;6.90;76.00
84661;BME280;74889;52.240;20.902;2024-02-04T01:40:03;99477.80;;;6.89;75.98
84661;BME280;74889;52.240;20.902;2024-02-04T01:42:31;99483.05;;;6.88;76.13
84661;BME280;74889;52.240;20.902;2024-02-04T01:44:56;99482.70;;;6.88;76.24
84661;BME280;74889;52.240;20.902;2024-02-04T01:47:23;99481.41;;;6.88;76.27
84661;BME280;74889;52.240;20.902;2024-02-04T01:49:49;99477.45;;;6.87;76.40
84661;BME280;74889;52.240;20.902;2024-02-04T01:52:15;99467.95;;;6.86;76.47
84661;BME280;74889;52.240;20.902;2024-02-04T01:54:43;99459.99;;;6.86;76.60
84661;BME280;74889;52.240;20.902;2024-02-04T01:57:10;99452.59;;;6.85;76.65
84661;BME280;74889;52.240;20.902;2024-02-04T01:59:38;99446.48;;;6.86;76.84
84661;BME280;74889;52.240;20.902;2024-02-04T02:02:05;99437.23;;;6.86;76.91
84661;BME280;74889;52.240;20.902;2024-02-04T02:04:31;99446.50;;;6.86;76.81
84661;BME280;74889;52.240;20.902;2024-02-04T02:06:58;99451.53;;;6.85;76.83
84661;BME280;74889;52.240;20.902;2024-02-04T02:09:26;99460.88;;;6.84;77.01
84661;BME280;74889;52.240;20.902;2024-02-04T02:12:12;99462.14;;;6.84;77.02
84661;BME280;74889;52.240;20.902;2024-02-04T02:14:42;99454.77;;;6.83;77.08
84661;BME280;74889;52.240;20.902;2024-02-04T02:17:12;99451.09;;;6.82;77.17
84661;BME280;74889;52.240;20.902;2024-02-04T02:20:02;99447.84;;;6.81;77.16
84661;BME280;74889;52.240;20.902;2024-02-04T02:22:49;99444.19;;;6.80;77.23
84661;BME280;74889;52.240;20.902;2024-02-04T02:25:20;99435.89;;;6.80;77.23
84661;BME280;74889;52.240;20.902;2024-02-04T02:27:50;99437.68;;;6.80;77.34
84661;BME280;74889;52.240;20.902;2024-02-04T02:30:16;99437.96;;;6.79;77.46
84661;BME280;74889;52.240;20.902;2024-02-04T02:32:44;99435.29;;;6.79;77.40
84661;BME280;74889;52.240;20.902;2024-02-04T02:35:12;99437.44;;;6.79;77.48
84661;BME280;74889;52.240;20.902;2024-02-04T02:40:29;99427.48;;;6.77;77.54
84661;BME280;74889;52.240;20.902;2024-02-04T02:42:57;99441.87;;;6.78;77.57
84661;BME280;74889;52.240;20.902;2024-02-04T02:45:23;99447.92;;;6.78;77.66
84661;BME280;74889;52.240;20.902;2024-02-04T02:47:52;99455.44;;;6.80;77.44
84661;BME280;74889;52.240;20.902;2024-02-04T02:50:20;99453.40;;;6.81;77.52
84661;BME280;74889;52.240;20.902;2024-02-04T02:52:45;99453.17;;;6.81;77.62
84661;BME280;74889;52.240;20.902;2024-02-04T02:55:11;99457.55;;;6.82;77.70
84661;BME280;74889;52.240;20.902;2024-02-04T02:57:37;99453.45;;;6.82;77.79
84661;BME280;74889;52.240;20.902;2024-02-04T03:00:03;99451.42;;;6.83;77.63
84661;BME280;74889;52.240;20.902;2024-02-04T03:02:31;99452.15;;;6.82;77.84
84661;BME280;74889;52.240;20.902;2024-02-04T03:04:56;99448.93;;;6.83;77.83
84661;BME280;74889;52.240;20.902;2024-02-04T03:07:22;99449.79;;;6.83;77.68
84661;BME280;74889;52.240;20.902;2024-02-04T03:09:47;99447.38;;;6.82;77.80
84661;BME280;74889;52.240;20.902;2024-02-04T03:12:13;99443.79;;;6.83;77.79
84661;BME280;74889;52.240;20.902;2024-02-04T03:14:38;99438.06;;;6.83;77.84
84661;BME280;74889;52.240;20.902;2024-02-04T03:17:04;99443.39;;;6.83;77.96
84661;BME280;74889;52.240;20.902;2024-02-04T03:19:30;99445.34;;;6.83;77.85
84661;BME280;74889;52.240;20.902;2024-02-04T03:21:55;99446.60;;;6.85;77.83
84661;BME280;74889;52.240;20.902;2024-02-04T03:24:21;99444.86;;;6.86;77.75
84661;BME280;74889;52.240;20.902;2024-02-04T03:26:47;99447.73;;;6.86;77.78
84661;BME280;74889;52.240;20.902;2024-02-04T03:29:13;99452.13;;;6.86;77.85
84661;BME280;74889;52.240;20.902;2024-02-04T03:31:39;99456.82;;;6.87;77.66
84661;BME280;74889;52.240;20.902;2024-02-04T03:34:04;99456.30;;;6.89;77.59
84661;BME280;74889;52.240;20.902;2024-02-04T03:36:31;99458.46;;;6.91;77.66
84661;BME280;74889;52.240;20.902;2024-02-04T03:38:57;99467.14;;;6.93;77.33
84661;BME280;74889;52.240;20.902;2024-02-04T03:41:23;99460.06;;;6.94;77.20
84661;BME280;74889;52.240;20.902;2024-02-04T03:43:48;99448.73;;;6.96;77.01
84661;BME280;74889;52.240;20.902;2024-02-04T03:46:15;99450.40;;;6.97;76.91
84661;BME280;74889;52.240;20.902;2024-02-04T03:48:42;99448.84;;;6.97;76.52
84661;BME280;74889;52.240;20.902;2024-02-04T03:51:08;99449.98;;;6.97;76.39
84661;BME280;74889;52.240;20.902;2024-02-04T03:53:33;99453.56;;;6.99;76.10
84661;BME280;74889;52.240;20.902;2024-02-04T03:55:59;99461.91;;;6.99;75.98
84661;BME280;74889;52.240;20.902;2024-02-04T03:58:25;99468.97;;;6.99;75.88
84661;BME280;74889;52.240;20.902;2024-02-04T04:00:55;99466.98;;;7.00;75.75
84661;BME280;74889;52.240;20.902;2024-02-04T04:03:21;99465.05;;;7.00;75.61
84661;BME280;74889;52.240;20.902;2024-02-04T04:05:48;99461.84;;;7.00;75.52
84661;BME280;74889;52.240;20.902;2024-02-04T04:08:15;99460.02;;;7.00;75.39
84661;BME280;74889;52.240;20.902;2024-02-04T04:10:41;99466.61;;;7.02;75.41
84661;BME280;74889;52.240;20.902;2024-02-04T04:13:07;99467.84;;;7.02;75.26
84661;BME280;74889;52.240;20.902;2024-02-04T04:15:34;99474.94;;;7.02;75.26
84661;BME280;74889;52.240;20.902;2024-02-04T04:17:59;99476.76;;;7.04;75.24
84661;BME280;74889;52.240;20.902;2024-02-04T04:20:25;99472.27;;;7.04;75.11
84661;BME280;74889;52.240;20.902;2024-02-04T04:22:50;99474.94;;;7.04;74.90
84661;BME280;74889;52.240;20.902;2024-02-04T04:25:16;99475.85;;;7.03;74.76
84661;BME280;74889;52.240;20.902;2024-02-04T04:27:44;99475.64;;;7.02;74.71
84661;BME280;74889;52.240;20.902;2024-02-04T04:30:11;99481.77;;;7.01;74.75
84661;BME280;74889;52.240;20.902;2024-02-04T04:32:37;99495.99;;;7.01;74.60
84661;BME280;74889;52.240;20.902;2024-02-04T04:35:03;99496.92;;;7.01;74.40
84661;BME280;74889;52.240;20.902;2024-02-04T04:37:30;99500.89;;;6.97;73.82
84661;BME280;74889;52.240;20.902;2024-02-04T04:39:55;99491.66;;;6.89;73.51
84661;BME280;74889;52.240;20.902;2024-02-04T04:42:22;99490.46;;;6.83;73.44
84661;BME280;74889;52.240;20.902;2024-02-04T04:44:48;99493.52;;;6.77;73.25
84661;BME280;74889;52.240;20.902;2024-02-04T04:47:15;99492.10;;;6.74;73.24
84661;BME280;74889;52.240;20.902;2024-02-04T04:49:42;99495.30;;;6.72;73.17
84661;BME280;74889;52.240;20.902;2024-02-04T04:52:08;99505.27;;;6.70;73.07
84661;BME280;74889;52.240;20.902;2024-02-04T04:54:34;99499.82;;;6.67;73.13
84661;BME280;74889;52.240;20.902;2024-02-04T04:57:00;99497.00;;;6.65;73.05
84661;BME280;74889;52.240;20.902;2024-02-04T04:59:25;99506.61;;;6.63;73.01
84661;BME280;74889;52.240;20.902;2024-02-04T05:01:51;99509.40;;;6.61;73.14
84661;BME280;74889;52.240;20.902;2024-02-04T05:04:16;99513.30;;;6.60;73.17
84661;BME280;74889;52.240;20.902;2024-02-04T05:06:44;99519.71;;;6.58;73.26
84661;BME280;74889;52.240;20.902;2024-02-04T05:09:09;99519.62;;;6.57;73.10
84661;BME280;74889;52.240;20.902;2024-02-04T05:11:35;99516.79;;;6.55;73.18
84661;BME280;74889;52.240;20.902;2024-02-04T05:14:00;99511.99;;;6.53;72.97
84661;BME280;74889;52.240;20.902;2024-02-04T05:16:26;99519.57;;;6.48;72.89
84661;BME280;74889;52.240;20.902;2024-02-04T05:18:51;99527.96;;;6.40;72.35
84661;BME280;74889;52.240;20.902;2024-02-04T05:21:17;99524.80;;;6.30;72.25
84661;BME280;74889;52.240;20.902;2024-02-04T05:23:42;99520.91;;;6.20;72.03
84661;BME280;74889;52.240;20.902;2024-02-04T05:26:09;99526.80;;;6.12;72.11
84661;BME280;74889;52.240;20.902;2024-02-04T05:28:34;99520.35;;;6.07;72.11
84661;BME280;74889;52.240;20.902;2024-02-04T05:31:03;99516.60;;;6.04;72.16
84661;BME280;74889;52.240;20.902;2024-02-04T05:33:29;99511.27;;;6.02;72.19
84661;BME280;74889;52.240;20.902;2024-02-04T05:35:54;99514.63;;;6.02;72.37
84661;BME280;74889;52.240;20.902;2024-02-04T05:38:21;99522.77;;;6.02;72.22
84661;BME280;74889;52.240;20.902;2024-02-04T05:40:47;99521.64;;;6.01;72.27
84661;BME280;74889;52.240;20.902;2024-02-04T05:43:13;99526.04;;;6.02;72.26
84661;BME280;74889;52.240;20.902;2024-02-04T05:45:39;99526.60;;;6.01;72.17
84661;BME280;74889;52.240;20.902;2024-02-04T05:48:08;99527.70;;;6.01;72.32
84661;BME280;74889;52.240;20.902;2024-02-04T05:50:35;99527.38;;;6.00;72.35
84661;BME280;74889;52.240;20.902;2024-02-04T05:53:00;99524.13;;;6.01;72.45
84661;BME280;74889;52.240;20.902;2024-02-04T05:55:27;99521.31;;;6.01;72.45
84661;BME280;74889;52.240;20.902;2024-02-04T05:57:53;99519.73;;;6.01;72.44
84661;BME280;74889;52.240;20.902;2024-02-04T06:00:20;99516.73;;;6.00;72.40
84661;BME280;74889;52.240;20.902;2024-02-04T06:02:46;99513.88;;;6.01;72.40
84661;BME280;74889;52.240;20.902;2024-02-04T06:05:12;99512.60;;;6.01;72.49
84661;BME280;74889;52.240;20.902;2024-02-04T06:07:38;99501.20;;;6.00;72.51
84661;BME280;74889;52.240;20.902;2024-02-04T06:10:05;99493.41;;;6.01;72.54
84661;BME280;74889;52.240;20.902;2024-02-04T06:12:31;99495.45;;;6.00;72.39
84661;BME280;74889;52.240;20.902;2024-02-04T06:14:57;99494.77;;;6.00;72.56
84661;BME280;74889;52.240;20.902;2024-02-04T06:17:22;99496.45;;;5.99;72.68
84661;BME280;74889;52.240;20.902;2024-02-04T06:19:48;99499.73;;;5.98;72.67
84661;BME280;74889;52.240;20.902;2024-02-04T06:22:16;99505.40;;;5.97;72.77
84661;BME280;74889;52.240;20.902;2024-02-04T06:24:42;99506.94;;;5.95;72.92
84661;BME280;74889;52.240;20.902;2024-02-04T06:27:08;99501.30;;;5.95;73.00
84661;BME280;74889;52.240;20.902;2024-02-04T06:29:34;99498.92;;;5.94;73.11
84661;BME280;74889;52.240;20.902;2024-02-04T06:31:59;99493.39;;;5.92;73.18
84661;BME280;74889;52.240;20.902;2024-02-04T06:34:26;99492.17;;;5.89;73.21
84661;BME280;74889;52.240;20.902;2024-02-04T06:36:53;99493.56;;;5.90;73.30
84661;BME280;74889;52.240;20.902;2024-02-04T06:39:18;99496.32;;;5.89;73.36
84661;BME280;74889;52.240;20.902;2024-02-04T06:41:44;99499.14;;;5.88;73.48
84661;BME280;74889;52.240;20.902;2024-02-04T06:44:11;99503.33;;;5.86;73.60
84661;BME280;74889;52.240;20.902;2024-02-04T06:46:38;99502.18;;;5.85;73.59
84661;BME280;74889;52.240;20.902;2024-02-04T06:49:05;99502.02;;;5.85;73.74
84661;BME280;74889;52.240;20.902;2024-02-04T06:51:31;99506.98;;;5.85;73.88
84661;BME280;74889;52.240;20.902;2024-02-04T06:53:56;99505.39;;;5.85;73.92
84661;BME280;74889;52.240;20.902;2024-02-04T06:56:22;99496.79;;;5.84;74.01
84661;BME280;74889;52.240;20.902;2024-02-04T06:58:47;99497.90;;;5.83;74.17
84661;BME280;74889;52.240;20.902;2024-02-04T07:01:14;99510.20;;;5.82;74.16
84661;BME280;74889;52.240;20.902;2024-02-04T07:03:40;99513.77;;;5.82;74.25
84661;BME280;74889;52.240;20.902;2024-02-04T07:06:06;99521.45;;;5.81;74.37
84661;BME280;74889;52.240;20.902;2024-02-04T07:08:32;99516.59;;;5.80;74.39
84661;BME280;74889;52.240;20.902;2024-02-04T07:10:58;99522.80;;;5.80;74.46
84661;BME280;74889;52.240;20.902;2024-02-04T07:13:24;99524.23;;;5.80;74.53
84661;BME280;74889;52.240;20.902;2024-02-04T07:15:53;99529.31;;;5.80;74.59
84661;BME280;74889;52.240;20.902;2024-02-04T07:18:27;99527.33;;;5.81;74.67
84661;BME280;74889;52.240;20.902;2024-02-04T07:20:55;99526.72;;;5.82;74.72
84661;BME280;74889;52.240;20.902;2024-02-04T07:23:20;99516.48;;;5.79;74.83
84661;BME280;74889;52.240;20.902;2024-02-04T07:25:47;99520.41;;;5.81;74.72
84661;BME280;74889;52.240;20.902;2024-02-04T07:28:13;99520.99;;;5.83;74.79
84661;BME280;74889;52.240;20.902;2024-02-04T07:30:39;99527.10;;;5.84;74.85
84661;BME280;74889;52.240;20.902;2024-02-04T07:33:05;99527.23;;;5.85;74.77
84661;BME280;74889;52.240;20.902;2024-02-04T07:35:43;99523.70;;;5.86;74.85
84661;BME280;74889;52.240;20.902;2024-02-04T07:38:14;99525.08;;;5.87;74.85
84661;BME280;74889;52.240;20.902;2024-02-04T07:40:40;99527.80;;;5.88;74.93
84661;BME280;74889;52.240;20.902;2024-02-04T07:43:06;99532.41;;;5.90;74.92
84661;BME280;74889;52.240;20.902;2024-02-04T07:45:31;99531.17;;;5.92;75.00
84661;BME280;74889;52.240;20.902;2024-02-04T07:47:58;99531.45;;;5.93;74.95
84661;BME280;74889;52.240;20.902;2024-02-04T07:50:23;99537.42;;;5.96;74.96
84661;BME280;74889;52.240;20.902;2024-02-04T07:52:51;99541.23;;;5.97;75.02
84661;BME280;74889;52.240;20.902;2024-02-04T07:55:17;99536.55;;;5.97;74.95
84661;BME280;74889;52.240;20.902;2024-02-04T07:57:44;99535.05;;;5.98;74.93
84661;BME280;74889;52.240;20.902;2024-02-04T08:00:10;99533.38;;;5.97;74.97
84661;BME280;74889;52.240;20.902;2024-02-04T08:02:43;99530.83;;;5.98;74.83
84661;BME280;74889;52.240;20.902;2024-02-04T08:05:09;99528.90;;;5.97;74.79
84661;BME280;74889;52.240;20.902;2024-02-04T08:07:34;99529.77;;;5.98;74.75
84661;BME280;74889;52.240;20.902;2024-02-04T08:10:01;99524.55;;;5.99;74.80
84661;BME280;74889;52.240;20.902;2024-02-04T08:12:27;99522.38;;;5.97;74.81
84661;BME280;74889;52.240;20.902;2024-02-04T08:14:53;99526.63;;;5.97;74.73
84661;BME280;74889;52.240;20.902;2024-02-04T08:17:19;99522.48;;;5.98;74.73
84661;BME280;74889;52.240;20.902;2024-02-04T08:19:48;99523.58;;;5.99;74.78
84661;BME280;74889;52.240;20.902;2024-02-04T08:22:14;99525.77;;;6.01;74.78
84661;BME280;74889;52.240;20.902;2024-02-04T08:24:40;99523.95;;;6.01;74.86
84661;BME280;74889;52.240;20.902;2024-02-04T08:27:07;99532.15;;;6.03;74.73
84661;BME280;74889;52.240;20.902;2024-02-04T08:29:34;99532.42;;;6.03;74.69
84661;BME280;74889;52.240;20.902;2024-02-04T08:32:00;99527.50;;;6.05;74.70
84661;BME280;74889;52.240;20.902;2024-02-04T08:34:27;99527.58;;;6.06;74.65
84661;BME280;74889;52.240;20.902;2024-02-04T08:36:52;99526.63;;;6.07;74.52
84661;BME280;74889;52.240;20.902;2024-02-04T08:39:19;99525.48;;;6.07;74.62
84661;BME280;74889;52.240;20.902;2024-02-04T08:41:44;99517.77;;;6.06;74.51
84661;BME280;74889;52.240;20.902;2024-02-04T08:44:13;99525.65;;;6.10;74.52
84661;BME280;74889;52.240;20.902;2024-02-04T08:46:39;99528.58;;;6.11;74.41
84661;BME280;74889;52.240;20.902;2024-02-04T08:49:09;99523.22;;;6.13;74.43
84661;BME280;74889;52.240;20.902;2024-02-04T08:51:35;99527.92;;;6.21;74.81
84661;BME280;74889;52.240;20.902;2024-02-04T08:54:01;99524.14;;;6.30;75.07
84661;BME280;74889;52.240;20.902;2024-02-04T08:56:28;99527.23;;;6.38;75.38
84661;BME280;74889;52.240;20.902;2024-02-04T08:58:53;99527.48;;;6.47;75.54
84661;BME280;74889;52.240;20.902;2024-02-04T09:01:19;99528.58;;;6.54;75.45
84661;BME280;74889;52.240;20.902;2024-02-04T09:03:46;99536.17;;;6.54;74.93
84661;BME280;74889;52.240;20.902;2024-02-04T09:06:11;99536.06;;;6.52;74.32
84661;BME280;74889;52.240;20.902;2024-02-04T09:08:37;99534.16;;;6.50;74.02
84661;BME280;74889;52.240;20.902;2024-02-04T09:11:02;99531.56;;;6.47;73.95
84661;BME280;74889;52.240;20.902;2024-02-04T09:13:28;99533.41;;;6.46;73.70
84661;BME280;74889;52.240;20.902;2024-02-04T09:15:54;99531.39;;;6.45;73.56
84661;BME280;74889;52.240;20.902;2024-02-04T09:18:20;99533.30;;;6.44;73.54
84661;BME280;74889;52.240;20.902;2024-02-04T09:20:47;99531.98;;;6.42;73.43
84661;BME280;74889;52.240;20.902;2024-02-04T09:23:14;99531.63;;;6.40;73.19
84661;BME280;74889;52.240;20.902;2024-02-04T09:25:39;99533.30;;;6.40;73.18
84661;BME280;74889;52.240;20.902;2024-02-04T09:28:06;99527.33;;;6.39;73.06
84661;BME280;74889;52.240;20.902;2024-02-04T09:30:32;99522.95;;;6.36;73.06
84661;BME280;74889;52.240;20.902;2024-02-04T09:32:57;99524.16;;;6.37;72.73
84661;BME280;74889;52.240;20.902;2024-02-04T09:35:24;99524.23;;;6.36;72.86
84661;BME280;74889;52.240;20.902;2024-02-04T09:37:49;99530.10;;;6.36;72.75
84661;BME280;74889;52.240;20.902;2024-02-04T09:40:16;99532.77;;;6.36;72.77
84661;BME280;74889;52.240;20.902;2024-02-04T09:42:42;99532.41;;;6.36;72.73
84661;BME280;74889;52.240;20.902;2024-02-04T09:45:09;99528.55;;;6.36;72.66
84661;BME280;74889;52.240;20.902;2024-02-04T09:47:36;99528.27;;;6.35;72.64
84661;BME280;74889;52.240;20.902;2024-02-04T09:50:04;99521.16;;;6.33;72.60
84661;BME280;74889;52.240;20.902;2024-02-04T09:52:33;99525.88;;;6.34;72.60
84661;BME280;74889;52.240;20.902;2024-02-04T09:55:01;99519.58;;;6.33;72.57
84661;BME280;74889;52.240;20.902;2024-02-04T09:57:29;99510.13;;;6.33;72.63
84661;BME280;74889;52.240;20.902;2024-02-04T09:59:59;99507.48;;;6.35;72.69
84661;BME280;74889;52.240;20.902;2024-02-04T10:02:25;99498.06;;;6.35;72.68
84661;BME280;74889;52.240;20.902;2024-02-04T10:04:51;99493.86;;;6.36;72.64
84661;BME280;74889;52.240;20.902;2024-02-04T10:07:18;99489.14;;;6.37;72.73
84661;BME280;74889;52.240;20.902;2024-02-04T10:09:44;99483.54;;;6.38;72.77
84661;BME280;74889;52.240;20.902;2024-02-04T10:12:11;99479.94;;;6.39;72.73
84661;BME280;74889;52.240;20.902;2024-02-04T10:14:37;99476.49;;;6.40;72.78
84661;BME280;74889;52.240;20.902;2024-02-04T10:17:03;99474.61;;;6.41;72.79
84661;BME280;74889;52.240;20.902;2024-02-04T10:19:30;99472.64;;;6.41;72.70
84661;BME280;74889;52.240;20.902;2024-02-04T10:22:03;99473.18;;;6.41;72.50
84661;BME280;74889;52.240;20.902;2024-02-04T10:24:29;99466.29;;;6.40;72.39
84661;BME280;74889;52.240;20.902;2024-02-04T10:26:56;99458.79;;;6.39;72.46
84661;BME280;74889;52.240;20.902;2024-02-04T10:29:25;99460.89;;;6.40;72.38
84661;BME280;74889;52.240;20.902;2024-02-04T10:31:57;99458.61;;;6.41;72.62
84661;BME280;74889;52.240;20.902;2024-02-04T10:34:27;99456.84;;;6.43;72.66
84661;BME280;74889;52.240;20.902;2024-02-04T10:37:01;99443.98;;;6.44;72.68
84661;BME280;74889;52.240;20.902;2024-02-04T10:39:30;99437.20;;;6.46;72.63
84661;BME280;74889;52.240;20.902;2024-02-04T10:42:13;99433.71;;;6.47;72.92
84661;BME280;74889;52.240;20.902;2024-02-04T10:51:47;99412.45;;;6.50;72.77
84661;BME280;74889;52.240;20.902;2024-02-04T10:58:33;99396.67;;;6.55;72.81
84661;BME280;74889;52.240;20.902;2024-02-04T11:05:27;99395.01;;;6.56;72.78
84661;BME280;74889;52.240;20.902;2024-02-04T11:08:27;99393.83;;;6.55;72.96
84661;BME280;74889;52.240;20.902;2024-02-04T11:10:58;99391.08;;;6.54;73.13
84661;BME280;74889;52.240;20.902;2024-02-04T11:13:25;99385.52;;;6.51;73.32
84661;BME280;74889;52.240;20.902;2024-02-04T11:15:53;99387.54;;;6.51;73.59
84661;BME280;74889;52.240;20.902;2024-02-04T11:21:42;99384.67;;;6.51;73.86
84661;BME280;74889;52.240;20.902;2024-02-04T11:24:32;99385.83;;;6.50;73.96
84661;BME280;74889;52.240;20.902;2024-02-04T11:27:00;99373.09;;;6.49;74.10
84661;BME280;74889;52.240;20.902;2024-02-04T11:29:26;99373.80;;;6.49;74.27
84661;BME280;74889;52.240;20.902;2024-02-04T11:31:52;99372.76;;;6.49;74.17
84661;BME280;74889;52.240;20.902;2024-02-04T11:34:19;99368.29;;;6.48;74.57
84661;BME280;74889;52.240;20.902;2024-02-04T11:36:44;99371.51;;;6.47;74.74
84661;BME280;74889;52.240;20.902;2024-02-04T11:39:28;99376.80;;;6.46;74.90
84661;BME280;74889;52.240;20.902;2024-02-04T11:41:54;99365.65;;;6.45;74.98
84661;BME280;74889;52.240;20.902;2024-02-04T11:44:22;99368.94;;;6.45;75.04
84661;BME280;74889;52.240;20.902;2024-02-04T11:46:50;99361.21;;;6.44;75.29
84661;BME280;74889;52.240;20.902;2024-02-04T11:49:19;99361.79;;;6.43;75.53
84661;BME280;74889;52.240;20.902;2024-02-04T11:51:50;99350.73;;;6.42;75.62
84661;BME280;74889;52.240;20.902;2024-02-04T11:54:17;99344.27;;;6.43;75.63
84661;BME280;74889;52.240;20.902;2024-02-04T11:56:45;99332.02;;;6.43;75.81
84661;BME280;74889;52.240;20.902;2024-02-04T11:59:12;99331.15;;;6.43;75.84
84661;BME280;74889;52.240;20.902;2024-02-04T12:01:39;99335.61;;;6.42;75.99
84661;BME280;74889;52.240;20.902;2024-02-04T12:04:10;99336.90;;;6.42;76.03
84661;BME280;74889;52.240;20.902;2024-02-04T12:06:38;99333.45;;;6.42;76.31
84661;BME280;74889;52.240;20.902;2024-02-04T12:09:05;99329.64;;;6.42;76.50
84661;BME280;74889;52.240;20.902;2024-02-04T12:11:34;99320.80;;;6.41;76.51
84661;BME280;74889;52.240;20.902;2024-02-04T12:14:03;99318.25;;;6.42;76.44
84661;BME280;74889;52.240;20.902;2024-02-04T12:16:29;99314.30;;;6.42;76.49
84661;BME280;74889;52.240;20.902;2024-02-04T12:18:54;99309.38;;;6.44;76.48
84661;BME280;74889;52.240;20.902;2024-02-04T12:21:20;99306.29;;;6.44;76.62
84661;BME280;74889;52.240;20.902;2024-02-04T12:23:46;99297.61;;;6.46;76.69
84661;BME280;74889;52.240;20.902;2024-02-04T12:26:12;99290.80;;;6.47;76.76
84661;BME280;74889;52.240;20.902;2024-02-04T12:28:38;99287.03;;;6.47;76.95
84661;BME280;74889;52.240;20.902;2024-02-04T12:31:04;99284.73;;;6.47;76.97
84661;BME280;74889;52.240;20.902;2024-02-04T12:33:30;99294.13;;;6.50;76.78
84661;BME280;74889;52.240;20.902;2024-02-04T12:35:57;99289.70;;;6.52;76.82
84661;BME280;74889;52.240;20.902;2024-02-04T12:38:24;99283.83;;;6.52;76.79
84661;BME280;74889;52.240;20.902;2024-02-04T12:40:51;99275.40;;;6.52;76.99
84661;BME280;74889;52.240;20.902;2024-02-04T12:43:18;99275.64;;;6.52;76.98
84661;BME280;74889;52.240;20.902;2024-02-04T12:45:44;99277.98;;;6.52;77.14
84661;BME280;74889;52.240;20.902;2024-02-04T12:48:14;99279.41;;;6.54;77.02
84661;BME280;74889;52.240;20.902;2024-02-04T12:50:41;99277.95;;;6.56;76.86
84661;BME280;74889;52.240;20.902;2024-02-04T12:53:08;99277.20;;;6.58;77.04
84661;BME280;74889;52.240;20.902;2024-02-04T12:55:37;99262.89;;;6.59;76.99
84661;BME280;74889;52.240;20.902;2024-02-04T12:58:06;99257.18;;;6.60;77.09
84661;BME280;74889;52.240;20.902;2024-02-04T13:00:34;99255.44;;;6.59;77.10
84661;BME280;74889;52.240;20.902;2024-02-04T13:03:00;99247.98;;;6.59;77.00
84661;BME280;74889;52.240;20.902;2024-02-04T13:05:26;99246.86;;;6.60;77.10
84661;BME280;74889;52.240;20.902;2024-02-04T13:07:57;99247.92;;;6.60;76.97
84661;BME280;74889;52.240;20.902;2024-02-04T13:11:14;99245.16;;;6.61;77.08
84661;BME280;74889;52.240;20.902;2024-02-04T13:13:30;99242.11;;;6.59;77.08
84661;BME280;74889;52.240;20.902;2024-02-04T13:16:02;99244.59;;;6.60;77.05
84661;BME280;74889;52.240;20.902;2024-02-04T13:18:34;99245.30;;;6.60;77.21
84661;BME280;74889;52.240;20.902;2024-02-04T13:21:00;99241.98;;;6.59;77.24